Terminal Aerodrome Forecast
Issued by NWS Springfield, MO

Home | Current Version | Previous Version | Text Only | Print | Product List | Glossary On
Versions: 1 2 3 4 5 6 7 8 9 10 11 12 13 14 15 16 17 18 19 20 21 22 23 24 25 26 27
571
FTUS43 KSGF 211720
TAFSGF
TAF
KSGF 211720Z 2118/2218 17015G28KT P6SM SCT030
      TEMPO 2118/2122 BKN030
     FM212200 17022G30KT P6SM BKN035
     FM220100 17016G26KT 6SM -SHRA VCTS OVC025CB
     FM220600 20012KT P6SM SCT040 SCT100
     FM221300 23014G22KT P6SM BKN025=

USA.gov is the U.S. government's official web portal to all federal, state and local government web resources and services.